CheckWX is a tool to help pilots better visualize weather data.  It is not intended as a substitute for an official pre-flight weather briefing.

20:07:55 UTC

KPRN METAR
Mac Crenshaw Memorial Airport
Greenville, Alabama, USA
Current

12 mins ago

KPRN 251956Z AUTO 35009KT 10SM CLR 34/19 A3006 RMK AO2 SLP172 T03440189
Observed
Jun-25 @ 19:56 UTC
Wind
  • 350° at 9 KTS
Visibility
10 SM
Flight Rules
VFR
Cloud Levels
  • Clear skies
Temperature
34°C / 93°F
Dewpoint
19°C / 66°F
Heat Index
36°C / 96°F
Humidity
41%
Altimeter
30.06" Hg
Pressure
1017.92 hPa
Previous

1 hour ago

KPRN 251856Z AUTO VRB05KT 10SM CLR 34/19 A3007 RMK AO2 SLP175 T03390189
Observed
Jun-25 @ 18:56 UTC
Wind
  • Variable at 5 KTS
Visibility
10 SM
Flight Rules
VFR
Cloud Levels
  • Clear skies
Temperature
34°C / 93°F
Dewpoint
19°C / 66°F
Heat Index
36°C / 96°F
Humidity
41%
Altimeter
30.07" Hg
Pressure
1018.32 hPa
Previous

2 hours ago

KPRN 251756Z AUTO 29007KT 10SM CLR 34/18 A3008 RMK AO2 SLP180 T03390183 10344 20239 50001
Observed
Jun-25 @ 17:56 UTC
Wind
  • 290° at 7 KTS
Visibility
10 SM
Flight Rules
VFR
Cloud Levels
  • Clear skies
Temperature
34°C / 93°F
Dewpoint
18°C / 64°F
Humidity
39%
Altimeter
30.08" Hg
Pressure
1018.62 hPa